MFR weather

Rogue Valley International Medford Airport
Medford, Oregon, United States

Public forecast

Using degrees Fahrenheit for public forecast. Weather courtesy of forecast.io.

METAR (pilot weather report)

Retrieved 2019/04/22 18:53 UTC (56 minutes ago):

KMFR 221853Z 05004KT 10SM CLR 17/07 A3030 RMK AO2 SLP260 T01670067

TAF (pilot weather forecast)

Retrieved 2019/04/22 18:34 UTC (1 hour ago):

TAF KMFR 221732Z 2218/2318 35006KT P6SM FEW120 FEW200